Time;durP1;ratioP1;P1;durP2;ratioP2;P2;SDS_P1;SDS_P2;PMS_P1;PMS_P2;Temp;Humidity;BMP_temperature;BMP_pressure;BME280_temperature;BME280_humidity;BME280_pressure;Samples;Min_cycle;Max_cycle;Signal;HPM_P1;HPM_P2
2023/07/06 00:01:55;;;;;;;14.27;8.02;;;15.60;99.90;;;;;;4991028;28;20027;-90
2023/07/06 00:04:22;;;;;;;12.98;8.30;;;15.60;99.90;;;;;;4960120;28;20031;-90
2023/07/06 00:06:48;;;;;;;12.93;7.95;;;15.50;99.90;;;;;;4963847;28;20022;-93
2023/07/06 00:09:14;;;;;;;15.32;8.70;;;15.60;99.90;;;;;;4950303;28;20512;-92
2023/07/06 00:11:41;;;;;;;11.98;8.45;;;15.50;99.90;;;;;;4966449;28;20023;-92
2023/07/06 00:14:09;;;;;;;14.15;8.93;;;15.50;99.90;;;;;;4964878;28;20482;-92
2023/07/06 00:16:35;;;;;;;13.30;8.73;;;15.50;99.90;;;;;;4965428;28;20027;-91
2023/07/06 00:19:01;;;;;;;14.15;9.32;;;15.50;99.90;;;;;;4981023;28;20038;-92
2023/07/06 00:21:29;;;;;;;16.67;8.70;;;15.40;99.90;;;;;;4980177;28;20138;-92
2023/07/06 00:23:55;;;;;;;17.42;9.45;;;15.40;99.90;;;;;;4945807;28;20035;-92
2023/07/06 00:26:21;;;;;;;16.88;9.52;;;15.40;99.90;;;;;;4963779;28;20565;-92
2023/07/06 00:28:50;;;;;;;17.38;9.75;;;15.40;99.90;;;;;;4979577;28;20498;-91
2023/07/06 00:31:32;;;;;;;14.90;8.98;;;15.30;99.90;;;;;;4932027;28;20031;-91
2023/07/06 00:34:03;;;;;;;16.05;9.45;;;15.30;99.90;;;;;;4980326;28;20026;-92
2023/07/06 00:36:30;;;;;;;16.63;10.05;;;15.30;99.90;;;;;;4964506;28;20023;-91
2023/07/06 00:38:56;;;;;;;20.48;10.13;;;15.30;99.90;;;;;;4946440;28;20184;-89
2023/07/06 00:41:22;;;;;;;15.85;9.68;;;15.30;99.90;;;;;;4944782;28;20482;-90
2023/07/06 00:43:52;;;;;;;12.55;8.70;;;15.30;99.90;;;;;;4943597;28;20027;-89
2023/07/06 00:46:19;;;;;;;12.98;8.57;;;15.40;99.90;;;;;;4976786;28;20033;-89
2023/07/06 00:48:46;;;;;;;17.75;10.50;;;15.30;99.90;;;;;;4928881;28;20520;-90
2023/07/06 00:51:23;;;;;;;15.50;9.43;;;15.30;99.90;;;;;;4960720;28;20023;-89
2023/07/06 00:54:01;;;;;;;17.95;9.18;;;15.30;99.90;;;;;;4960626;28;20505;-89
2023/07/06 00:56:30;;;;;;;19.85;9.05;;;15.30;99.90;;;;;;4978233;28;20051;-95
2023/07/06 00:59:03;;;;;;;17.55;9.77;;;15.30;99.90;;;;;;4963873;28;20037;-91
2023/07/06 01:01:32;;;;;;;15.85;9.52;;;15.30;99.90;;;;;;4963663;28;20077;-91
2023/07/06 01:03:59;;;;;;;18.05;10.02;;;15.30;99.90;;;;;;4964618;28;20129;-92
2023/07/06 01:06:36;;;;;;;17.45;9.18;;;15.30;99.90;;;;;;4949388;28;20022;-92
2023/07/06 01:09:06;;;;;;;16.98;9.45;;;15.30;99.90;;;;;;4963398;28;20062;-93
2023/07/06 01:11:36;;;;;;;12.55;8.90;;;15.30;99.90;;;;;;4963602;28;20027;-92
2023/07/06 01:14:02;;;;;;;15.02;9.30;;;15.30;99.90;;;;;;4976996;28;20027;-92
2023/07/06 01:16:42;;;;;;;16.92;9.02;;;15.30;99.90;;;;;;4944661;28;20628;-93
2023/07/06 01:19:22;;;;;;;14.82;9.35;;;15.30;99.90;;;;;;4960505;28;20023;-91
2023/07/06 01:22:13;;;;;;;16.63;10.82;;;15.30;99.90;;;;;;4976435;28;20027;-93
2023/07/06 01:25:07;;;;;;;15.40;9.68;;;15.30;99.90;;;;;;4976221;28;20026;-92
2023/07/06 01:27:51;;;;;;;16.00;9.98;;;15.30;99.90;;;;;;4959585;28;20035;-92
2023/07/06 01:30:29;;;;;;;16.60;10.25;;;15.30;99.90;;;;;;4977282;28;20026;-91
2023/07/06 01:33:07;;;;;;;16.63;10.10;;;15.30;99.90;;;;;;4976760;28;20023;-89
2023/07/06 01:35:52;;;;;;;17.48;11.02;;;15.20;99.90;;;;;;4975818;28;20034;-89
2023/07/06 01:38:22;;;;;;;18.40;9.75;;;15.20;99.90;;;;;;4975900;28;20034;-89
2023/07/06 01:40:48;;;;;;;14.57;10.10;;;15.20;99.90;;;;;;4975995;28;20019;-90
2023/07/06 01:43:14;;;;;;;23.50;12.57;;;15.20;99.90;;;;;;4975772;28;20031;-90
2023/07/06 01:45:40;;;;;;;15.63;9.95;;;15.20;99.90;;;;;;4961433;28;20035;-92
2023/07/06 01:48:11;;;;;;;15.05;10.40;;;15.20;99.90;;;;;;4948351;28;20026;-92
2023/07/06 01:50:48;;;;;;;18.65;10.25;;;15.10;99.90;;;;;;4963696;28;20055;-95
2023/07/06 01:53:49;;;;;;;25.00;12.48;;;15.20;99.90;;;;;;4979034;28;20030;-95
2023/07/06 01:56:28;;;;;;;17.10;10.65;;;15.10;99.90;;;;;;4960536;28;20046;-94
2023/07/06 01:59:03;;;;;;;17.35;10.95;;;15.10;99.90;;;;;;4995959;28;20379;-95
2023/07/06 02:01:44;;;;;;;16.50;9.48;;;15.00;99.90;;;;;;4972394;28;20042;-90
2023/07/06 02:04:11;;;;;;;17.65;10.73;;;15.00;99.90;;;;;;4995137;28;20030;-90
2023/07/06 02:06:37;;;;;;;15.95;10.57;;;15.00;99.90;;;;;;4962782;28;20473;-91
2023/07/06 02:09:04;;;;;;;18.23;10.40;;;15.00;99.90;;;;;;4979615;28;20030;-92
2023/07/06 02:11:32;;;;;;;16.02;9.50;;;15.00;99.90;;;;;;4962744;28;20085;-90
2023/07/06 02:13:57;;;;;;;19.13;9.00;;;15.00;99.90;;;;;;4962678;28;20093;-90
2023/07/06 02:16:23;;;;;;;16.02;10.60;;;15.00;99.90;;;;;;4947872;28;20034;-94
2023/07/06 02:18:49;;;;;;;14.43;9.50;;;15.00;99.90;;;;;;4962843;28;20479;-90
2023/07/06 02:21:15;;;;;;;17.70;9.68;;;15.00;99.90;;;;;;4978926;28;20057;-91
2023/07/06 02:23:41;;;;;;;15.45;10.10;;;15.00;99.90;;;;;;4946173;28;20121;-92
2023/07/06 02:26:07;;;;;;;17.77;9.80;;;15.00;99.90;;;;;;4978543;28;20029;-90
2023/07/06 02:28:34;;;;;;;17.35;9.52;;;15.00;99.90;;;;;;4994606;28;20026;-90
2023/07/06 02:31:03;;;;;;;15.25;9.52;;;15.00;99.90;;;;;;4970920;28;20034;-93
2023/07/06 02:33:30;;;;;;;16.45;9.80;;;15.00;99.90;;;;;;5006362;28;20014;-94
2023/07/06 02:35:56;;;;;;;17.02;9.43;;;15.00;99.90;;;;;;4951927;28;20023;-91
2023/07/06 02:38:22;;;;;;;17.98;9.25;;;15.00;99.90;;;;;;4978669;28;20037;-91
2023/07/06 02:40:51;;;;;;;16.75;9.73;;;14.90;99.90;;;;;;4962451;28;20019;-90
2023/07/06 02:43:17;;;;;;;16.90;9.27;;;14.90;99.90;;;;;;4978592;28;20432;-92
2023/07/06 02:45:47;;;;;;;12.93;8.45;;;14.90;99.90;;;;;;4978760;28;20057;-91
2023/07/06 02:48:14;;;;;;;13.57;8.63;;;14.90;99.90;;;;;;4978717;28;20033;-91
2023/07/06 02:50:39;;;;;;;12.65;7.85;;;14.80;99.90;;;;;;4994525;28;20022;-92
2023/07/06 02:53:06;;;;;;;19.20;8.80;;;14.90;99.90;;;;;;4962855;28;20568;-95
2023/07/06 02:55:32;;;;;;;17.35;9.38;;;14.90;99.90;;;;;;4946836;28;20029;-93
2023/07/06 02:57:58;;;;;;;15.40;8.73;;;14.90;99.90;;;;;;4978796;28;20060;-94
2023/07/06 03:00:24;;;;;;;14.40;8.15;;;14.80;99.90;;;;;;4988118;28;20389;-92
2023/07/06 03:02:51;;;;;;;16.02;8.40;;;14.80;99.90;;;;;;4994523;28;20056;-92
2023/07/06 03:05:22;;;;;;;17.05;8.63;;;14.80;99.90;;;;;;4994194;28;20113;-90
2023/07/06 03:07:49;;;;;;;16.80;7.32;;;14.80;99.90;;;;;;4977884;28;20078;-91
2023/07/06 03:10:17;;;;;;;16.05;7.78;;;14.80;99.90;;;;;;4980879;28;20026;-94
2023/07/06 03:12:43;;;;;;;16.25;7.90;;;14.80;99.90;;;;;;4980777;28;20022;-94
2023/07/06 03:15:10;;;;;;;15.18;7.65;;;14.70;99.90;;;;;;4997021;28;20041;-91
2023/07/06 03:17:36;;;;;;;14.52;6.85;;;14.70;99.90;;;;;;4963771;28;20031;-94
2023/07/06 03:20:15;;;;;;;12.45;7.03;;;14.70;99.90;;;;;;4978761;28;20077;-94
2023/07/06 03:22:45;;;;;;;16.08;7.05;;;14.70;99.90;;;;;;4964525;28;20400;-93
2023/07/06 03:25:24;;;;;;;14.32;7.18;;;14.70;99.90;;;;;;4964494;28;20073;-93
2023/07/06 03:27:50;;;;;;;15.48;7.00;;;14.70;99.90;;;;;;4969801;28;20030;-92
2023/07/06 03:30:20;;;;;;;14.02;7.05;;;14.70;99.90;;;;;;4963467;28;20038;-93
2023/07/06 03:32:50;;;;;;;11.35;6.30;;;14.60;99.90;;;;;;4995433;28;20025;-94
2023/07/06 03:35:16;;;;;;;14.52;7.03;;;14.60;99.90;;;;;;4994616;28;20023;-93
2023/07/06 03:37:43;;;;;;;15.90;6.22;;;14.60;99.90;;;;;;4994470;28;20453;-93
2023/07/06 03:40:13;;;;;;;11.88;6.40;;;14.60;99.90;;;;;;4994455;28;20389;-90
2023/07/06 03:42:42;;;;;;;12.35;6.10;;;14.60;99.90;;;;;;4997055;28;20026;-91
2023/07/06 03:45:10;;;;;;;12.95;6.72;;;14.70;99.90;;;;;;4997601;28;20033;-90
2023/07/06 03:47:39;;;;;;;12.35;5.70;;;14.60;99.90;;;;;;4997195;28;20026;-91
2023/07/06 03:50:09;;;;;;;12.98;6.65;;;14.60;99.90;;;;;;4997205;28;20420;-91
2023/07/06 03:52:37;;;;;;;14.07;5.83;;;14.60;99.90;;;;;;4997573;28;20030;-90
2023/07/06 03:55:05;;;;;;;14.25;6.80;;;14.60;99.90;;;;;;4981138;28;20121;-91
2023/07/06 03:57:31;;;;;;;13.90;6.10;;;14.60;99.90;;;;;;4980832;28;20054;-90
2023/07/06 03:59:57;;;;;;;14.73;6.82;;;14.60;99.90;;;;;;4995393;28;20061;-89
2023/07/06 04:02:22;;;;;;;12.10;6.07;;;14.50;99.90;;;;;;5019577;28;20062;-89
2023/07/06 04:04:48;;;;;;;11.27;6.18;;;14.50;99.90;;;;;;4986708;28;20034;-88
2023/07/06 04:07:14;;;;;;;12.55;6.10;;;14.50;99.90;;;;;;5001009;28;20025;-93
2023/07/06 04:09:40;;;;;;;18.60;7.78;;;14.50;99.90;;;;;;4981367;28;20480;-89
2023/07/06 04:12:07;;;;;;;16.75;6.60;;;14.50;99.90;;;;;;4980251;28;20036;-89
2023/07/06 04:14:34;;;;;;;14.55;6.30;;;14.50;99.90;;;;;;4980628;28;20030;-90
2023/07/06 04:17:01;;;;;;;14.40;6.45;;;14.50;99.90;;;;;;4996825;28;20029;-90
2023/07/06 04:19:28;;;;;;;16.88;6.35;;;14.50;99.90;;;;;;5000368;28;20018;-90
2023/07/06 04:21:55;;;;;;;14.25;6.38;;;14.50;99.90;;;;;;4968441;28;20030;-89
2023/07/06 04:24:21;;;;;;;14.85;6.32;;;14.40;99.90;;;;;;4984134;28;20034;-90
2023/07/06 04:26:47;;;;;;;16.13;6.63;;;14.50;99.90;;;;;;4983986;28;20026;-90
2023/07/06 04:29:14;;;;;;;11.65;6.07;;;14.40;99.90;;;;;;4968161;28;20080;-92
2023/07/06 04:31:40;;;;;;;13.77;6.63;;;14.50;99.90;;;;;;4969072;28;20099;-90
2023/07/06 04:34:06;;;;;;;14.48;6.22;;;14.50;99.90;;;;;;4999994;28;20524;-90
2023/07/06 04:36:32;;;;;;;15.80;6.43;;;14.50;99.90;;;;;;4997243;28;20042;-89
2023/07/06 04:38:59;;;;;;;15.32;6.95;;;14.50;99.90;;;;;;4978245;28;20097;-87
2023/07/06 04:41:28;;;;;;;14.85;6.95;;;14.50;99.90;;;;;;4973372;28;20388;-93
2023/07/06 04:43:55;;;;;;;13.30;6.00;;;14.50;99.90;;;;;;4984811;28;20547;-92
2023/07/06 04:46:26;;;;;;;18.60;6.40;;;14.50;99.90;;;;;;5023235;28;20030;-93
2023/07/06 04:48:53;;;;;;;13.55;6.32;;;14.50;99.90;;;;;;4989788;28;20666;-93
2023/07/06 04:51:19;;;;;;;13.48;6.38;;;14.50;99.90;;;;;;4985854;28;20108;-94
2023/07/06 04:53:45;;;;;;;12.20;6.32;;;14.50;99.90;;;;;;4967630;28;20143;-93
2023/07/06 04:56:11;;;;;;;14.25;6.05;;;14.50;99.90;;;;;;4968123;28;20456;-93
2023/07/06 04:58:38;;;;;;;15.38;6.85;;;14.50;99.90;;;;;;4983489;28;20065;-92
2023/07/06 05:01:07;;;;;;;13.07;6.97;;;14.50;99.90;;;;;;5000067;28;20018;-91
2023/07/06 05:03:35;;;;;;;17.73;6.75;;;14.50;99.90;;;;;;4983666;28;20026;-90
2023/07/06 05:06:12;;;;;;;16.20;6.78;;;14.50;99.90;;;;;;4999180;28;20026;-90
2023/07/06 05:08:39;;;;;;;19.50;6.82;;;14.50;99.90;;;;;;4999309;28;20025;-89
2023/07/06 05:11:06;;;;;;;18.38;7.10;;;14.50;99.90;;;;;;4984076;28;20022;-88
2023/07/06 05:13:32;;;;;;;13.77;6.53;;;14.50;99.90;;;;;;4966688;28;20023;-88
2023/07/06 05:15:58;;;;;;;16.70;7.38;;;14.50;99.90;;;;;;4983346;28;20108;-88
2023/07/06 05:18:24;;;;;;;15.85;7.32;;;14.50;99.90;;;;;;5009311;28;20082;-89
2023/07/06 05:20:51;;;;;;;25.83;7.25;;;14.50;99.90;;;;;;5012806;28;20109;-91
2023/07/06 05:23:18;;;;;;;15.93;6.55;;;14.50;99.90;;;;;;4979937;28;20097;-90
2023/07/06 05:25:44;;;;;;;16.05;7.15;;;14.50;99.90;;;;;;4964090;28;20369;-90
2023/07/06 05:28:13;;;;;;;20.10;7.30;;;14.50;99.90;;;;;;4963382;28;20118;-90
2023/07/06 05:30:40;;;;;;;16.98;7.38;;;14.50;99.90;;;;;;4978769;28;20022;-90
2023/07/06 05:33:06;;;;;;;23.02;8.77;;;14.50;99.90;;;;;;4984074;28;20026;-90
2023/07/06 05:35:32;;;;;;;17.15;7.78;;;14.50;99.90;;;;;;4993974;28;20038;-90
2023/07/06 05:38:00;;;;;;;20.58;8.20;;;14.50;99.90;;;;;;4998982;28;20088;-91
2023/07/06 05:40:25;;;;;;;21.02;7.97;;;14.50;99.90;;;;;;4984136;28;20026;-90
2023/07/06 05:42:54;;;;;;;16.45;8.88;;;14.50;99.90;;;;;;4982677;28;20045;-90
2023/07/06 05:45:19;;;;;;;19.63;8.60;;;14.60;99.90;;;;;;4983019;28;20372;-89
2023/07/06 05:48:06;;;;;;;17.60;8.65;;;14.60;99.90;;;;;;4985396;28;20037;-90
2023/07/06 05:50:32;;;;;;;21.95;9.77;;;14.70;99.90;;;;;;5003993;28;20017;-90
2023/07/06 05:52:58;;;;;;;19.17;8.93;;;14.70;99.90;;;;;;5000252;28;20476;-90
2023/07/06 05:55:24;;;;;;;21.77;9.73;;;14.70;99.90;;;;;;4964645;28;20030;-90
2023/07/06 05:57:50;;;;;;;22.92;11.13;;;14.70;99.90;;;;;;4964267;28;20045;-89
2023/07/06 06:00:15;;;;;;;29.65;12.07;;;14.70;99.90;;;;;;5017520;28;20033;-88
2023/07/06 06:02:44;;;;;;;23.02;11.82;;;14.70;99.90;;;;;;4984730;28;20018;-88
2023/07/06 06:05:13;;;;;;;27.42;12.25;;;14.80;99.90;;;;;;4998813;28;20566;-88
2023/07/06 06:07:40;;;;;;;29.70;12.02;;;14.80;99.90;;;;;;4982259;28;20048;-90
2023/07/06 06:10:06;;;;;;;24.02;11.10;;;14.80;99.90;;;;;;4981995;28;20026;-90
2023/07/06 06:12:33;;;;;;;28.88;12.30;;;14.80;99.90;;;;;;4982030;28;20034;-91
2023/07/06 06:15:00;;;;;;;26.20;12.52;;;14.80;99.90;;;;;;4983466;28;20388;-94
2023/07/06 06:17:27;;;;;;;24.02;12.27;;;14.90;99.90;;;;;;4983987;28;20022;-94
2023/07/06 06:19:53;;;;;;;26.52;12.00;;;14.90;99.90;;;;;;4982633;28;20057;-93
2023/07/06 06:22:20;;;;;;;19.90;11.07;;;14.90;99.90;;;;;;4982202;28;20041;-93
2023/07/06 06:24:46;;;;;;;24.17;12.27;;;15.00;99.90;;;;;;4983159;28;20026;-93
2023/07/06 06:27:14;;;;;;;30.67;13.02;;;15.00;99.90;;;;;;4982100;28;20473;-93
2023/07/06 06:29:42;;;;;;;25.58;12.40;;;15.00;99.90;;;;;;4997561;28;20030;-89
2023/07/06 06:32:08;;;;;;;29.67;12.85;;;15.10;99.90;;;;;;4997694;28;20488;-89
2023/07/06 06:34:35;;;;;;;33.00;13.88;;;15.10;99.90;;;;;;4997287;28;20037;-91
2023/07/06 06:37:00;;;;;;;41.03;13.77;;;15.10;99.90;;;;;;4997482;28;20129;-91
2023/07/06 06:39:26;;;;;;;26.48;13.55;;;15.10;99.90;;;;;;4997484;28;20072;-90
2023/07/06 06:41:52;;;;;;;29.88;13.52;;;15.10;99.90;;;;;;4980531;28;20030;-90
2023/07/06 06:44:17;;;;;;;33.13;14.60;;;15.10;99.90;;;;;;4981385;28;20362;-90
2023/07/06 06:46:45;;;;;;;29.77;15.60;;;15.20;99.90;;;;;;4982846;28;20030;-89
2023/07/06 06:49:11;;;;;;;30.35;16.38;;;15.30;99.90;;;;;;4997460;28;20041;-89
2023/07/06 06:51:37;;;;;;;32.55;17.25;;;15.30;99.90;;;;;;4981077;28;20026;-89
2023/07/06 06:54:02;;;;;;;29.60;15.95;;;15.40;99.90;;;;;;4981435;28;20129;-91
2023/07/06 06:56:29;;;;;;;26.13;15.77;;;15.40;99.90;;;;;;4977814;28;20054;-92
2023/07/06 06:58:54;;;;;;;33.80;17.25;;;15.40;99.90;;;;;;4978830;28;20030;-93
2023/07/06 07:01:20;;;;;;;28.60;16.05;;;15.50;99.90;;;;;;4982043;28;20057;-88
2023/07/06 07:03:46;;;;;;;33.38;18.75;;;15.50;99.90;;;;;;4977792;28;20422;-89
2023/07/06 07:06:13;;;;;;;32.17;18.42;;;15.50;99.90;;;;;;4978283;28;20478;-89
2023/07/06 07:08:42;;;;;;;31.73;19.08;;;15.50;99.90;;;;;;4977943;28;20018;-90
2023/07/06 07:11:07;;;;;;;30.88;18.65;;;15.60;99.90;;;;;;4977521;28;20015;-89
2023/07/06 07:13:38;;;;;;;31.67;17.88;;;15.60;99.90;;;;;;4945538;28;20073;-89
2023/07/06 07:16:11;;;;;;;34.55;19.10;;;15.60;99.90;;;;;;4977557;28;20028;-89
2023/07/06 07:18:38;;;;;;;36.72;19.30;;;15.60;99.90;;;;;;4978060;28;20025;-89
2023/07/06 07:21:07;;;;;;;33.80;18.58;;;15.60;99.90;;;;;;4979651;28;20022;-89
2023/07/06 07:23:42;;;;;;;32.10;18.83;;;15.70;99.90;;;;;;4961889;28;20026;-89
2023/07/06 07:26:12;;;;;;;38.50;19.05;;;15.70;99.90;;;;;;4977520;28;20100;-88
2023/07/06 07:28:39;;;;;;;32.00;18.30;;;15.80;99.90;;;;;;4994821;28;20033;-88
2023/07/06 07:31:07;;;;;;;32.67;18.98;;;15.80;99.90;;;;;;4961646;28;20015;-89
2023/07/06 07:33:34;;;;;;;27.17;17.95;;;15.90;99.90;;;;;;4958269;28;20383;-91
2023/07/06 07:36:02;;;;;;;37.38;20.23;;;15.90;99.90;;;;;;4958493;28;20114;-94
2023/07/06 07:38:28;;;;;;;33.05;18.33;;;16.00;99.90;;;;;;4942619;28;20039;-94
2023/07/06 07:40:59;;;;;;;31.40;19.50;;;16.00;99.90;;;;;;4958940;28;20058;-93
2023/07/06 07:43:28;;;;;;;32.40;19.33;;;16.10;99.90;;;;;;4958985;28;20027;-94
2023/07/06 07:45:57;;;;;;;28.73;18.50;;;16.10;99.90;;;;;;4942440;28;20440;-91
2023/07/06 07:48:25;;;;;;;35.08;18.80;;;16.10;99.90;;;;;;4957884;28;20022;-90
2023/07/06 07:50:53;;;;;;;27.05;18.67;;;16.20;99.90;;;;;;4975556;28;20027;-91
2023/07/06 07:53:22;;;;;;;26.65;17.83;;;16.20;99.90;;;;;;4960241;28;20031;-90
2023/07/06 07:55:49;;;;;;;26.05;16.50;;;16.30;99.90;;;;;;4964111;28;20029;-95
2023/07/06 07:58:14;;;;;;;29.13;17.27;;;16.30;99.90;;;;;;4983119;28;20027;-94
2023/07/06 08:00:40;;;;;;;31.67;20.67;;;16.30;99.90;;;;;;4983899;28;20126;-91
2023/07/06 08:03:07;;;;;;;28.63;19.40;;;16.40;99.90;;;;;;4964868;28;20034;-89
2023/07/06 08:05:38;;;;;;;30.40;17.23;;;16.40;99.90;;;;;;4964581;28;20026;-89
2023/07/06 08:08:04;;;;;;;33.15;19.17;;;16.50;99.90;;;;;;4980498;28;20018;-90
2023/07/06 08:10:34;;;;;;;28.02;18.33;;;16.50;99.90;;;;;;4964573;28;20034;-89
2023/07/06 08:13:00;;;;;;;28.20;18.43;;;16.60;99.90;;;;;;4967250;28;20027;-90
2023/07/06 08:15:25;;;;;;;31.92;19.35;;;16.60;99.90;;;;;;4965228;28;20284;-90
2023/07/06 08:17:51;;;;;;;25.30;17.88;;;16.60;99.90;;;;;;4968224;28;20045;-90
2023/07/06 08:20:17;;;;;;;29.85;17.85;;;16.60;99.90;;;;;;4967901;28;20026;-91
2023/07/06 08:22:43;;;;;;;29.27;18.73;;;16.70;99.90;;;;;;4967744;28;20033;-90
2023/07/06 08:25:08;;;;;;;27.70;18.63;;;16.70;99.90;;;;;;4999980;28;20036;-90
2023/07/06 08:27:35;;;;;;;29.50;18.67;;;16.80;99.90;;;;;;4981028;28;20085;-89
2023/07/06 08:30:01;;;;;;;27.42;18.27;;;16.90;99.90;;;;;;4979114;28;20187;-89
2023/07/06 08:32:27;;;;;;;29.33;17.33;;;16.90;99.90;;;;;;4981068;28;20037;-90
2023/07/06 08:34:53;;;;;;;32.10;18.80;;;16.90;99.90;;;;;;4965602;28;20500;-89
2023/07/06 08:37:20;;;;;;;27.17;18.40;;;17.00;99.90;;;;;;4980299;28;20121;-89
2023/07/06 08:39:46;;;;;;;26.83;17.20;;;17.00;99.90;;;;;;4975103;28;20109;-90
2023/07/06 08:42:15;;;;;;;27.95;17.42;;;17.00;99.90;;;;;;4993735;28;20562;-91
2023/07/06 08:44:52;;;;;;;27.40;17.33;;;17.00;99.90;;;;;;5006158;28;20465;-92
2023/07/06 08:47:19;;;;;;;26.25;16.60;;;17.00;99.90;;;;;;5002708;28;20022;-91
2023/07/06 08:49:47;;;;;;;26.77;17.27;;;17.00;99.90;;;;;;4986211;28;20481;-92
2023/07/06 08:52:15;;;;;;;23.13;15.95;;;17.00;99.90;;;;;;4985585;28;20030;-91
2023/07/06 08:54:44;;;;;;;23.80;16.52;;;17.10;99.90;;;;;;5007686;28;20034;-91
2023/07/06 08:57:18;;;;;;;25.73;16.98;;;17.20;99.90;;;;;;4969192;28;20042;-89
2023/07/06 08:59:48;;;;;;;29.85;17.60;;;17.20;99.90;;;;;;4999618;28;20026;-92
2023/07/06 09:02:23;;;;;;;26.52;16.55;;;17.20;99.90;;;;;;4999614;28;20072;-92
2023/07/06 09:04:51;;;;;;;26.50;15.88;;;17.30;99.90;;;;;;4998663;28;20555;-93
2023/07/06 09:07:19;;;;;;;23.13;16.15;;;17.30;99.90;;;;;;4984195;28;20488;-91
2023/07/06 09:09:47;;;;;;;25.75;15.75;;;17.40;99.90;;;;;;4999501;28;20072;-91
2023/07/06 09:12:33;;;;;;;20.73;13.63;;;17.50;99.90;;;;;;4984605;28;20069;-90
2023/07/06 09:15:00;;;;;;;23.38;14.75;;;17.50;99.90;;;;;;4999518;28;20029;-89
2023/07/06 09:17:32;;;;;;;20.95;13.95;;;17.50;99.90;;;;;;5016061;28;20025;-90
2023/07/06 09:20:01;;;;;;;22.38;13.15;;;17.60;99.90;;;;;;4998944;28;20065;-89
2023/07/06 09:22:27;;;;;;;19.92;12.23;;;17.60;99.90;;;;;;4983516;28;20041;-89
2023/07/06 09:24:52;;;;;;;25.05;12.55;;;17.60;99.90;;;;;;4963605;28;20423;-89
2023/07/06 09:27:23;;;;;;;21.50;12.80;;;17.70;99.90;;;;;;4966349;28;20392;-88
2023/07/06 09:30:01;;;;;;;19.63;12.77;;;17.70;99.90;;;;;;5017159;28;20029;-89
2023/07/06 09:32:29;;;;;;;18.35;11.93;;;17.70;99.90;;;;;;4999140;28;20500;-90
2023/07/06 09:35:01;;;;;;;19.70;10.75;;;17.70;99.90;;;;;;4983638;28;20116;-92
2023/07/06 09:37:26;;;;;;;17.83;10.52;;;17.70;99.90;;;;;;5000927;28;20026;-92
2023/07/06 09:40:05;;;;;;;19.58;11.15;;;17.80;99.90;;;;;;4968351;28;20033;-92
2023/07/06 09:42:32;;;;;;;18.83;11.48;;;17.80;99.90;;;;;;5002066;28;20033;-92
2023/07/06 09:45:00;;;;;;;18.10;11.73;;;17.80;99.90;;;;;;4983571;28;20032;-90
2023/07/06 09:47:29;;;;;;;19.58;11.85;;;17.90;99.90;;;;;;4987510;28;20030;-92
2023/07/06 09:49:59;;;;;;;23.98;12.27;;;18.00;99.90;;;;;;5001598;28;20053;-92
2023/07/06 09:52:26;;;;;;;19.95;12.18;;;18.10;99.90;;;;;;5001657;28;20026;-92
2023/07/06 09:54:57;;;;;;;19.52;12.52;;;18.10;99.90;;;;;;4999501;28;20444;-91
2023/07/06 09:57:25;;;;;;;17.00;10.95;;;18.20;99.90;;;;;;4999145;28;20049;-91
2023/07/06 09:59:52;;;;;;;21.95;12.27;;;18.30;99.90;;;;;;4999214;28;20037;-92
2023/07/06 10:02:44;;;;;;;19.70;11.00;;;18.40;99.90;;;;;;4999329;28;20050;-92
2023/07/06 10:05:25;;;;;;;16.70;10.60;;;18.50;99.90;;;;;;4992089;28;20050;-92
2023/07/06 10:08:11;;;;;;;23.33;12.55;;;18.60;99.90;;;;;;4999592;28;20026;-89
2023/07/06 10:10:52;;;;;;;17.60;11.40;;;18.60;99.90;;;;;;4998386;28;20046;-90
2023/07/06 10:13:32;;;;;;;16.58;10.85;;;18.70;99.90;;;;;;4999287;28;20017;-92
2023/07/06 10:16:24;;;;;;;19.45;10.30;;;18.80;99.90;;;;;;5000033;28;20079;-92
2023/07/06 10:18:52;;;;;;;15.57;9.35;;;18.90;99.90;;;;;;4999817;28;20033;-93
2023/07/06 10:21:33;;;;;;;18.98;10.43;;;18.90;99.90;;;;;;4998844;28;20026;-90
2023/07/06 10:24:09;;;;;;;20.55;9.30;;;18.90;99.90;;;;;;4998384;28;20022;-91
2023/07/06 10:26:43;;;;;;;19.33;10.27;;;19.10;99.90;;;;;;4998181;28;20029;-92
2023/07/06 10:29:16;;;;;;;18.00;10.10;;;19.10;99.90;;;;;;4998404;28;20018;-91
2023/07/06 10:31:55;;;;;;;16.25;9.27;;;19.20;99.90;;;;;;4997837;28;20065;-90
2023/07/06 10:34:53;;;;;;;17.77;8.05;;;19.30;99.90;;;;;;4982665;28;20030;-91
2023/07/06 10:37:19;;;;;;;15.40;8.10;;;19.30;99.90;;;;;;4994536;28;20030;-92
2023/07/06 10:39:45;;;;;;;11.52;7.45;;;19.40;99.90;;;;;;4978527;28;20034;-93
2023/07/06 10:42:25;;;;;;;10.40;6.65;;;19.50;99.90;;;;;;4994757;28;20440;-92
2023/07/06 10:44:58;;;;;;;14.27;8.30;;;19.50;99.90;;;;;;4997677;28;20029;-92
2023/07/06 10:47:41;;;;;;;13.65;6.72;;;19.60;99.90;;;;;;4997716;28;20271;-93
2023/07/06 10:50:07;;;;;;;10.02;6.75;;;19.70;99.90;;;;;;4978813;28;20022;-92
2023/07/06 10:52:37;;;;;;;10.65;5.95;;;19.70;99.90;;;;;;4978598;28;20034;-93
2023/07/06 10:55:12;;;;;;;10.88;6.30;;;19.70;99.90;;;;;;4978770;28;20088;-90
2023/07/06 10:57:48;;;;;;;11.88;6.95;;;19.80;99.90;;;;;;4977656;28;20061;-90
2023/07/06 11:00:18;;;;;;;13.50;6.30;;;19.90;99.90;;;;;;4978567;28;20030;-91
2023/07/06 11:02:45;;;;;;;18.67;6.80;;;19.90;99.90;;;;;;4978256;28;20054;-90
2023/07/06 11:05:32;;;;;;;12.95;6.57;;;20.00;99.90;;;;;;4962484;28;20026;-91
2023/07/06 11:08:10;;;;;;;11.10;5.88;;;20.00;99.90;;;;;;4978879;28;20113;-91
2023/07/06 11:10:38;;;;;;;13.13;6.43;;;20.00;99.90;;;;;;4978840;28;20516;-91
2023/07/06 11:13:04;;;;;;;12.90;5.82;;;20.10;99.90;;;;;;4978159;28;20019;-91
2023/07/06 11:15:43;;;;;;;8.20;4.78;;;20.20;99.90;;;;;;4978199;28;20455;-90
2023/07/06 11:18:19;;;;;;;12.23;5.22;;;20.30;99.90;;;;;;4978945;28;20041;-90
2023/07/06 11:20:52;;;;;;;10.55;4.95;;;20.40;99.90;;;;;;4978353;28;20022;-90
2023/07/06 11:23:28;;;;;;;10.15;5.50;;;20.50;99.90;;;;;;4979710;28;20026;-88
2023/07/06 11:25:55;;;;;;;9.75;5.97;;;20.50;99.90;;;;;;4981753;28;20038;-91
2023/07/06 11:28:23;;;;;;;11.80;6.30;;;20.60;99.90;;;;;;4960303;28;20024;-90
2023/07/06 11:31:43;;;;;;;10.32;5.68;;;20.60;99.90;;;;;;4992101;28;20033;-89
2023/07/06 11:34:34;;;;;;;12.32;5.45;;;20.70;99.90;;;;;;5007907;28;20493;-90
2023/07/06 11:37:06;;;;;;;10.30;5.28;;;20.80;99.90;;;;;;5009125;28;20030;-89
2023/07/06 11:39:43;;;;;;;10.65;5.13;;;20.90;99.90;;;;;;5002387;28;20572;-90
2023/07/06 11:42:29;;;;;;;11.38;5.70;;;20.90;99.90;;;;;;4993732;28;20034;-90
2023/07/06 11:44:58;;;;;;;10.57;5.55;;;21.00;99.90;;;;;;4999425;28;20126;-89
2023/07/06 11:47:35;;;;;;;10.45;5.28;;;21.00;99.90;;;;;;4971720;28;20034;-89
2023/07/06 11:50:04;;;;;;;10.25;5.15;;;20.90;99.90;;;;;;4990896;28;20073;-89
2023/07/06 11:52:33;;;;;;;11.63;4.70;;;20.90;99.90;;;;;;4990772;28;20022;-89
2023/07/06 11:55:18;;;;;;;7.03;4.30;;;20.90;99.90;;;;;;4989814;28;20060;-88
2023/07/06 11:58:31;;;;;;;9.77;4.88;;;21.00;99.90;;;;;;4990524;28;20053;-89
2023/07/06 12:01:10;;;;;;;8.18;4.40;;;21.10;99.90;;;;;;4974838;28;20041;-89
2023/07/06 12:03:36;;;;;;;11.25;5.03;;;21.20;99.90;;;;;;4981666;28;20030;-90
2023/07/06 12:06:03;;;;;;;7.30;4.35;;;21.20;99.90;;;;;;4981339;28;20489;-91
2023/07/06 12:08:37;;;;;;;8.48;4.55;;;21.30;99.90;;;;;;4967575;28;20034;-91
2023/07/06 12:11:07;;;;;;;8.43;4.25;;;21.30;99.90;;;;;;4982063;28;20027;-89
2023/07/06 12:13:45;;;;;;;12.02;5.18;;;21.30;99.90;;;;;;4966313;28;20477;-89
2023/07/06 12:16:21;;;;;;;10.60;4.28;;;21.30;99.90;;;;;;4980966;28;20072;-88
2023/07/06 12:18:57;;;;;;;7.90;4.40;;;21.20;99.90;;;;;;4981498;28;20027;-89
2023/07/06 12:21:27;;;;;;;7.55;4.10;;;21.10;99.90;;;;;;4981357;28;20018;-88
2023/07/06 12:23:52;;;;;;;8.50;4.45;;;21.10;99.90;;;;;;4982150;28;20018;-90
2023/07/06 12:26:18;;;;;;;10.93;4.35;;;21.00;99.90;;;;;;4966422;28;20500;-88
2023/07/06 12:28:49;;;;;;;9.93;4.75;;;21.00;99.90;;;;;;4964856;28;20035;-88
2023/07/06 12:31:18;;;;;;;;;;;21.00;99.90;;;;;;4981506;28;20030;-89
2023/07/06 12:33:44;;;;;;;10.57;4.35;;;21.00;99.90;;;;;;4981125;28;19913;-89
2023/07/06 12:36:13;;;;;;;9.18;4.30;;;21.00;99.90;;;;;;4965362;28;20026;-89
2023/07/06 12:38:39;;;;;;;7.60;3.60;;;21.00;99.90;;;;;;4964065;28;20045;-89
2023/07/06 12:41:19;;;;;;;8.60;4.10;;;21.00;99.90;;;;;;4964000;28;20026;-89
2023/07/06 12:43:45;;;;;;;10.50;4.57;;;21.00;99.90;;;;;;4981502;28;20046;-89
2023/07/06 12:46:12;;;;;;;6.80;3.47;;;20.90;99.90;;;;;;4981017;28;20066;-88
2023/07/06 12:48:47;;;;;;;8.82;4.40;;;20.90;99.90;;;;;;4980483;28;20018;-89